To NAV CANADA Home Page Login to a new session Search on AWWS site Feedback and Comments Disclaimer Vers la page française équivalente Tips FAQ What's new on the site To the Forecasts and Observations / NOTAM section To "File a Flight Plan" website Publications and other links Update of the User's profile FIC Telephone Numbers My Weather Data Folder Route Weather Data Regional Weather Data Local Weather Data To the Forecasts and Observations / NOTAM section
Request Generated 03/03/2015 at 04:38:47 UTC . Weather information available at that time is displayed.

METAR/TAF

WINNIPEG/JAMES ARMSTRONG RICHARDSON INTL/MB    

METAR CYWG 030400Z 19018G25KT 15SM BKN041 M05/M09 A2971 RMK SC7
SLP079=
METAR CYWG 030300Z 18017G24KT 15SM BKN046 M05/M09 A2973 RMK SC7
SLP086=
METAR CYWG 030200Z 18022G29KT 15SM BKN040 M05/M09 A2978 RMK SC7
SLP103=

TAF CYWG 022338Z 0300/0324 17020G30KT P6SM BKN200
FM030400 17012KT P6SM BKN070
BECMG 0305/0307 33018G28KT
FM030800 33020G35KT P6SM SCT030 TEMPO 0308/0314 2SM BLSN VV012
FM031400 33015G25KT P6SM FEW030
FM031900 33015G25KT P6SM BKN050 TEMPO 0319/0324 5SM -SHSN
RMK NXT FCST BY 030600Z=
Your time UTC time
Weather data provided by Environment Canada and NAV CANADA